M I D A S
Marine Information and Data Acquisition System
Tripno 522 of the Zeeleeuw from 2003-06-23 06:31:47 to 2003-06-23 11:49:05
Back to CruiseResearch ActivitiesStationsMapUnderway DataData graphs

EquipmentUnitsComments
TimeDGPSUTC
LatitudeDGPSDM.mWGS84
LongitudeDGPSDM.mWGS84
SpeedMeteo Stationm/sRelative wind speed
DirectionMeteo StationdegRelative wind direction
TemperatureMeteo Stationdeg CelciusAir temperature
PressureMeteo StationPaAtmospheric pressure
HumidityMeteo Station%Relative humidity
Missing or incorrect values are displayed as -999
Metereological data collected by the RV Zeeleeuw from 2003-06-23 06:31:47 to 2003-06-23 11:49:05
Time Latitude Longitude Speed Direction Temperature Pressure Humidity
2003-06-23 06:32 51°13.65 2°55.91 2.4 186 20.6 100180 73
2003-06-23 06:33 51°13.67 2°55.81 3.8 141 20.7 100180 74
2003-06-23 06:34 51°13.69 2°55.78 2.4 106 20.7 100170 73
2003-06-23 06:35 51°13.72 2°55.79 2.8 200 20.7 100170 74
2003-06-23 06:36 51°13.72 2°55.79 1.2 250 20.7 100170 74
2003-06-23 06:37 51°13.77 2°55.7 2.8 308 20.7 100160 74
2003-06-23 06:38 51°13.87 2°55.6 1.1 296 20.8 100170 74
2003-06-23 06:39 51°13.99 2°55.51 1.1 351 20.9 100170 73
2003-06-23 06:40 51°14.11 2°55.42 2.2 330 21 100170 73
2003-06-23 06:41 51°14.23 2°55.31 3.9 304 21.1 100160 72
2003-06-23 06:42 51°14.34 2°55.12 6 332 21.1 100160 72
2003-06-23 06:43 51°14.5 2°54.96 4.8 328 21.1 100160 71
2003-06-23 06:44 51°14.68 2°54.78 5.7 326 21.1 100160 71
2003-06-23 06:45 51°14.85 2°54.59 5.9 322 21 100160 72
2003-06-23 06:46 51°15.03 2°54.39 5.5 329 21 100160 72
2003-06-23 06:47 51°15.2 2°54.19 5 323 20.9 100170 72
2003-06-23 06:48 51°15.39 2°54 5.6 331 20.9 100170 72
2003-06-23 06:49 51°15.58 2°53.83 5.8 335 20.8 100170 73
2003-06-23 06:50 51°15.78 2°53.65 6 42 20.8 100180 73
2003-06-23 06:51 51°15.98 2°53.48 5.3 322 20.7 100180 74
2003-06-23 06:52 51°16.18 2°53.3 5.9 322 20.6 100190 75
2003-06-23 06:53 51°16.38 2°53.12 6 320 20.5 100190 75
2003-06-23 06:54 51°16.59 2°52.97 6.2 326 20.5 100200 76
2003-06-23 06:55 51°16.8 2°52.81 6.6 326 20.5 100200 76
2003-06-23 06:56 51°17.01 2°52.66 6.7 326 20.4 100210 76
2003-06-23 06:57 51°17.22 2°52.5 6.9 335 20.4 100210 77
2003-06-23 06:58 51°17.44 2°52.35 6.5 333 20.4 100210 77
2003-06-23 06:59 51°17.65 2°52.19 6.2 329 20.4 100210 77
2003-06-23 07:00 51°17.86 2°52.04 5.7 319 20.3 100200 77
2003-06-23 07:01 51°18.03 2°51.82 7.8 331 20.3 100200 77
2003-06-23 07:02 51°18.17 2°51.55 8.3 330 20.3 100200 78
2003-06-23 07:03 51°18.32 2°51.28 8.4 332 20.3 100200 78
2003-06-23 07:04 51°18.46 2°51.01 8.5 329 20.2 100190 78
2003-06-23 07:05 51°18.61 2°50.75 8.4 333 20.2 100200 78
2003-06-23 07:06 51°18.75 2°50.49 8.7 334 20.2 100200 78
2003-06-23 07:07 51°18.89 2°50.23 9.1 332 20.1 100200 78
2003-06-23 07:08 51°19.03 2°49.97 8.1 337 20 100200 78
2003-06-23 07:09 51°19.16 2°49.72 8.4 332 19.9 100190 79
2003-06-23 07:10 51°19.3 2°49.47 7.8 334 19.9 100190 79
2003-06-23 07:11 51°19.43 2°49.22 7.4 327 19.8 100180 79
2003-06-23 07:12 51°19.53 2°48.95 9.2 339 19.8 100180 79
2003-06-23 07:13 51°19.59 2°48.64 10 340 19.8 100180 79
2003-06-23 07:14 51°19.64 2°48.32 10.4 342 19.8 100190 79
2003-06-23 07:15 51°19.7 2°47.99 13.4 347 19.7 100200 80
2003-06-23 07:16 51°19.76 2°47.66 16.4 349 19.7 100220 80
2003-06-23 07:17 51°19.82 2°47.33 14.6 351 19.6 100230 80
2003-06-23 07:18 51°19.87 2°47 14.9 351 19.6 100230 80
2003-06-23 07:19 51°19.9 2°46.67 16.4 350 19.4 100230 81
2003-06-23 07:20 51°19.93 2°46.33 14.2 353 19.3 100230 81
2003-06-23 07:21 51°19.96 2°46.01 15.6 352 19.2 100220 81
2003-06-23 07:22 51°20 2°45.68 14.8 351 19.2 100230 81
2003-06-23 07:23 51°20.04 2°45.36 14.4 352 19.1 100230 81
2003-06-23 07:24 51°20.08 2°45.03 15.2 352 19.1 100230 81
2003-06-23 07:25 51°20.12 2°44.7 15.3 354 19 100230 81
2003-06-23 07:26 51°20.16 2°44.37 15.6 353 19 100240 81
2003-06-23 07:27 51°20.2 2°44.03 14.2 354 18.9 100240 81
2003-06-23 07:28 51°20.24 2°43.69 14.8 354 18.9 100250 81
2003-06-23 07:29 51°20.28 2°43.36 13.8 356 18.8 100250 81
2003-06-23 07:30 51°20.31 2°43.02 14.3 354 18.7 100250 82
2003-06-23 07:31 51°20.35 2°42.69 13.7 351 18.7 100250 82
2003-06-23 07:32 51°20.38 2°42.36 15.2 355 18.6 100250 82
2003-06-23 07:33 51°20.41 2°42.03 13.7 357 18.6 100250 82
2003-06-23 07:34 51°20.45 2°41.7 14.5 356 18.6 100250 83
2003-06-23 07:35 51°20.48 2°41.38 14.4 355 18.5 100250 83
2003-06-23 07:36 51°20.52 2°41.05 12.7 356 18.5 100250 83
2003-06-23 07:37 51°20.57 2°40.71 13.8 357 18.5 100250 83
2003-06-23 07:38 51°20.61 2°40.38 13.9 357 18.5 100240 82
2003-06-23 07:39 51°20.65 2°40.04 13.2 353 18.5 100250 82
2003-06-23 07:40 51°20.69 2°39.71 13.7 354 18.5 100250 82
2003-06-23 07:41 51°20.72 2°39.37 15.1 355 18.4 100240 82
2003-06-23 07:42 51°20.76 2°39.04 13.8 355 18.4 100250 82
2003-06-23 07:43 51°20.8 2°38.7 14.7 357 18.4 100260 82
2003-06-23 07:44 51°20.83 2°38.36 14.1 354 18.3 100250 82
2003-06-23 07:45 51°20.86 2°38.02 14 359 18.3 100260 83
2003-06-23 07:46 51°20.9 2°37.69 12.6 358 18.2 100240 83
2003-06-23 07:47 51°20.93 2°37.35 13.5 358 18.2 100250 83
2003-06-23 07:48 51°20.95 2°37.01 13.6 3 18.2 100250 83
2003-06-23 07:49 51°20.97 2°36.68 13.7 2 18.1 100250 83
2003-06-23 07:50 51°20.98 2°36.34 12.9 3 18.1 100250 83
2003-06-23 07:51 51°21 2°36 13.6 8 18 100250 83
2003-06-23 07:52 51°21.02 2°35.67 13.7 2 18 100250 84
2003-06-23 07:53 51°21.04 2°35.33 13.1 2 17.9 100260 84
2003-06-23 07:54 51°21.06 2°35 13.8 3 17.9 100250 84
2003-06-23 07:55 51°21.09 2°34.66 12.9 4 17.9 100260 84
2003-06-23 07:56 51°21.11 2°34.32 13.5 4 17.9 100260 84
2003-06-23 07:57 51°21.13 2°33.99 13.3 4 17.8 100260 84
2003-06-23 07:58 51°21.16 2°33.65 13.5 5 17.8 100270 84
2003-06-23 07:59 51°21.18 2°33.31 14.3 359 17.7 100260 84
2003-06-23 08:00 51°21.28 2°33.01 13 337 17.7 100270 84
2003-06-23 08:01 51°21.5 2°32.89 12.5 326 17.7 100260 84
2003-06-23 08:02 51°21.73 2°32.84 11.5 320 17.7 100270 84
2003-06-23 08:03 51°21.97 2°32.79 12.2 321 17.6 100280 84
2003-06-23 08:04 51°22.2 2°32.74 11.3 316 17.6 100270 84
2003-06-23 08:05 51°22.44 2°32.7 12.7 42 17.6 100270 85
2003-06-23 08:06 51°22.68 2°32.67 12.5 321 17.6 100270 85
2003-06-23 08:07 51°22.91 2°32.62 14.4 341 17.6 100280 85
2003-06-23 08:08 51°23.02 2°32.36 15.2 10 17.6 100280 85
2003-06-23 08:09 51°23.02 2°32.03 15.8 15 17.6 100270 85
2003-06-23 08:10 51°23.01 2°31.71 15.6 14 17.6 100260 85
2003-06-23 08:11 51°23.01 2°31.39 15.3 14 17.6 100250 84
2003-06-23 08:12 51°23.01 2°31.06 15.5 15 17.6 100260 84
2003-06-23 08:13 51°23.01 2°30.74 14.6 15 17.6 100260 84
2003-06-23 08:14 51°22.99 2°30.42 15.2 14 17.6 100260 84
2003-06-23 08:15 51°22.97 2°30.09 15.3 20 17.6 100270 84
2003-06-23 08:16 51°22.95 2°29.77 16.4 14 17.6 100270 84
2003-06-23 08:17 51°22.92 2°29.45 15.2 22 17.8 100260 83
2003-06-23 08:18 51°22.9 2°29.12 15.1 23 18 100270 83
2003-06-23 08:19 51°22.89 2°28.8 14.2 21 18.1 100270 82
2003-06-23 08:20 51°22.87 2°28.47 13.2 23 18 100270 81
2003-06-23 08:21 51°22.85 2°28.15 14.3 23 17.9 100290 81
2003-06-23 08:22 51°22.82 2°27.82 13.3 23 17.8 100290 82
2003-06-23 08:23 51°22.8 2°27.49 12.5 22 17.8 100290 82
2003-06-23 08:24 51°22.78 2°27.16 13.4 20 17.8 100300 83
2003-06-23 08:25 51°22.75 2°26.83 12.9 20 17.8 100290 83
2003-06-23 08:26 51°22.73 2°26.5 12.5 19 17.9 100300 83
2003-06-23 08:27 51°22.71 2°26.17 12.5 11 17.9 100300 82
2003-06-23 08:28 51°22.82 2°25.88 12.4 352 17.9 100320 82
2003-06-23 08:29 51°23.04 2°25.8 11.1 334 17.8 100310 82
2003-06-23 08:30 51°23.28 2°25.86 9.5 335 17.8 100320 83
2003-06-23 08:31 51°23.53 2°25.92 10 333 17.8 100320 83
2003-06-23 08:32 51°23.78 2°25.98 9.7 332 17.7 100320 83
2003-06-23 08:33 51°24.03 2°26.04 10.3 335 17.7 100320 83
2003-06-23 08:34 51°24.29 2°26.07 10.7 335 17.7 100320 83
2003-06-23 08:35 51°24.54 2°26.1 10.6 332 17.6 100320 83
2003-06-23 08:36 51°24.79 2°26.14 10.4 333 17.6 100310 83
2003-06-23 08:37 51°25.04 2°26.17 9.8 333 17.6 100330 83
2003-06-23 08:38 51°25.3 2°26.21 9.2 332 17.5 100320 83
2003-06-23 08:39 51°25.55 2°26.24 8.8 333 17.4 100320 83
2003-06-23 08:40 51°25.8 2°26.27 8.5 331 17.4 100330 83
2003-06-23 08:41 51°26.05 2°26.3 8.9 329 17.4 100320 84
2003-06-23 08:42 51°26.3 2°26.33 9.9 335 17.3 100320 84
2003-06-23 08:43 51°26.55 2°26.36 10.1 334 17.3 100310 84
2003-06-23 08:44 51°26.79 2°26.39 10.3 333 17.3 100310 84
2003-06-23 08:45 51°27.04 2°26.42 9.7 334 17.3 100310 84
2003-06-23 08:46 51°27.29 2°26.45 9.2 334 17.2 100320 84
2003-06-23 08:47 51°27.54 2°26.48 9.1 335 17.2 100310 84
2003-06-23 08:48 51°27.79 2°26.52 8.8 333 17.1 100320 84
2003-06-23 08:49 51°28.04 2°26.55 9.4 334 17.1 100320 84
2003-06-23 08:50 51°28.29 2°26.57 8.9 336 17 100320 85
2003-06-23 08:51 51°28.54 2°26.6 9.1 333 17 100310 85
2003-06-23 08:52 51°28.78 2°26.63 8.4 328 17 100310 85
2003-06-23 08:53 51°29.03 2°26.71 8.1 326 17 100320 85
2003-06-23 08:54 51°29.27 2°26.81 8.1 324 17 100320 85
2003-06-23 08:55 51°29.51 2°26.91 7.6 325 17 100330 85
2003-06-23 08:56 51°29.75 2°27.01 7.7 327 17 100320 85
2003-06-23 08:57 51°29.99 2°27.11 7.6 323 17 100320 85
2003-06-23 08:58 51°30.23 2°27.21 7.1 320 17 100330 85
2003-06-23 08:59 51°30.47 2°27.31 7.2 322 16.9 100330 85
2003-06-23 09:00 51°30.71 2°27.41 6.8 324 16.9 100320 86
2003-06-23 09:01 51°30.95 2°27.51 7.6 323 16.9 100330 86
2003-06-23 09:02 51°31.19 2°27.61 7.7 323 16.9 100320 86
2003-06-23 09:03 51°31.43 2°27.72 7.5 322 16.9 100320 86
2003-06-23 09:04 51°31.67 2°27.84 7 325 16.8 100320 86
2003-06-23 09:05 51°31.91 2°27.96 6.9 324 16.8 100320 86
2003-06-23 09:06 51°32.15 2°28.09 6.3 327 16.8 100330 86
2003-06-23 09:07 51°32.39 2°28.21 6.2 327 16.8 100330 86
2003-06-23 09:08 51°32.63 2°28.34 6.2 327 16.8 100330 86
2003-06-23 09:09 51°32.87 2°28.47 6.3 329 16.8 100330 86
2003-06-23 09:10 51°33.11 2°28.59 6.4 330 16.8 100330 86
2003-06-23 09:11 51°33.34 2°28.71 6.2 329 16.8 100340 86
2003-06-23 09:12 51°33.58 2°28.84 5.6 328 16.8 100330 86
2003-06-23 09:13 51°33.82 2°28.96 6.3 331 16.8 100330 86
2003-06-23 09:14 51°34.06 2°29.08 6.2 330 16.8 100330 86
2003-06-23 09:15 51°34.3 2°29.2 6.7 322 16.7 100340 86
2003-06-23 09:16 51°34.53 2°29.33 6.2 317 16.7 100340 86
2003-06-23 09:17 51°34.77 2°29.45 5.5 44 16.7 100340 86
2003-06-23 09:18 51°35.01 2°29.57 3.3 317 16.7 100340 86
2003-06-23 09:19 51°35.25 2°29.69 4.9 324 16.6 100330 86
2003-06-23 09:20 51°35.49 2°29.8 4.8 322 16.6 100330 86
2003-06-23 09:21 51°35.73 2°29.91 5.1 321 16.6 100340 86
2003-06-23 09:22 51°35.97 2°30.02 5.3 321 16.6 100340 86
2003-06-23 09:23 51°36.21 2°30.14 5.1 324 16.6 100330 86
2003-06-23 09:24 51°36.45 2°30.25 5.4 325 16.7 100330 86
2003-06-23 09:25 51°36.69 2°30.36 5.4 327 16.7 100330 86
2003-06-23 09:26 51°36.92 2°30.47 5.2 326 16.7 100340 86
2003-06-23 09:27 51°37.16 2°30.58 5.5 322 16.7 100340 86
2003-06-23 09:28 51°37.4 2°30.69 5.5 320 16.7 100340 86
2003-06-23 09:29 51°37.64 2°30.8 5.7 320 16.7 100340 86
2003-06-23 09:30 51°37.87 2°30.95 3.4 336 16.8 100340 85
2003-06-23 09:31 51°38 2°31.27 3.6 39 16.8 100350 85
2003-06-23 09:32 51°38 2°31.66 5.3 46 16.7 100350 85
2003-06-23 09:33 51°37.97 2°32.05 5.3 48 16.6 100340 85
2003-06-23 09:34 51°37.94 2°32.43 5.3 42 16.5 100340 86
2003-06-23 09:35 51°37.9 2°32.81 5.4 42 16.4 100350 86
2003-06-23 09:36 51°37.86 2°33.2 5.9 49 16.4 100340 86
2003-06-23 09:37 51°37.82 2°33.57 6 46 16.3 100340 87
2003-06-23 09:38 51°37.77 2°33.95 5.9 49 16.3 100350 87
2003-06-23 09:39 51°37.72 2°34.32 5.9 48 16.3 100350 87
2003-06-23 09:40 51°37.67 2°34.7 6.3 51 16.2 100350 87
2003-06-23 09:41 51°37.6 2°35.06 7.4 48 16.3 100350 87
2003-06-23 09:42 51°37.48 2°35.39 7.5 39 16.2 100350 88
2003-06-23 09:43 51°37.33 2°35.68 7.7 44 16.2 100340 88
2003-06-23 09:44 51°37.17 2°35.94 9.9 45 16.2 100350 88
2003-06-23 09:45 51°36.98 2°36.13 9 42 16.2 100350 88
2003-06-23 09:46 51°36.8 2°36.34 9.8 42 16.2 100350 88
2003-06-23 09:47 51°36.59 2°36.47 11.3 36 16.2 100360 89
2003-06-23 09:48 51°36.37 2°36.5 11.2 34 16.3 100350 89
2003-06-23 09:49 51°36.16 2°36.51 11.9 35 16.3 100370 89
2003-06-23 09:50 51°35.94 2°36.52 12 39 16.4 100370 89
2003-06-23 09:51 51°35.72 2°36.54 11.7 39 16.4 100380 89
2003-06-23 09:52 51°35.51 2°36.55 12.4 43 16.4 100380 89
2003-06-23 09:53 51°35.29 2°36.57 12.1 42 16.4 100390 89
2003-06-23 09:54 51°35.07 2°36.61 11.8 43 16.4 100390 89
2003-06-23 09:55 51°34.85 2°36.64 12.7 45 16.4 100400 89
2003-06-23 09:56 51°34.63 2°36.68 12 44 16.4 100410 89
2003-06-23 09:57 51°34.41 2°36.71 13 44 16.4 100400 90
2003-06-23 09:58 51°34.2 2°36.74 13 47 16.4 100420 90
2003-06-23 09:59 51°33.98 2°36.77 13.1 44 16.4 100420 90
2003-06-23 10:00 51°33.76 2°36.78 13.8 44 16.4 100420 90
2003-06-23 10:01 51°33.54 2°36.79 13.8 43 16.4 100420 90
2003-06-23 10:02 51°33.32 2°36.8 13.7 42 16.5 100420 90
2003-06-23 10:03 51°33.11 2°36.81 13.7 39 16.5 100420 90
2003-06-23 10:04 51°32.89 2°36.82 13.7 38 16.6 100430 90
2003-06-23 10:05 51°32.67 2°36.82 14.1 40 16.6 100430 90
2003-06-23 10:06 51°32.45 2°36.83 17.5 42 16.7 100440 90
2003-06-23 10:07 51°32.24 2°36.83 16.6 41 16.7 100430 90
2003-06-23 10:08 51°32.02 2°36.83 17.8 41 16.7 100430 90
2003-06-23 10:09 51°31.81 2°36.83 17.3 42 16.7 100440 90
2003-06-23 10:10 51°31.6 2°36.82 18 41 16.7 100430 90
2003-06-23 10:11 51°31.39 2°36.82 17.6 42 16.6 100430 90
2003-06-23 10:12 51°31.17 2°36.82 18.8 47 16.6 100420 90
2003-06-23 10:13 51°30.96 2°36.81 18.4 44 16.5 100410 90
2003-06-23 10:14 51°30.75 2°36.81 20.8 43 16.5 100420 90
2003-06-23 10:15 51°30.54 2°36.81 19.6 44 16.5 100430 90
2003-06-23 10:16 51°30.33 2°36.8 17.6 39 16.5 100430 90
2003-06-23 10:17 51°30.12 2°36.8 21.2 48 16.5 100420 90
2003-06-23 10:18 51°29.91 2°36.85 17.9 59 16.4 100420 90
2003-06-23 10:19 51°29.7 2°36.96 17.1 57 16.4 100460 90
2003-06-23 10:20 51°29.49 2°37.07 16.7 58 16.4 100480 91
2003-06-23 10:21 51°29.28 2°37.18 16.2 60 16.3 100480 91
2003-06-23 10:22 51°29.07 2°37.28 15.9 61 16.3 100490 91
2003-06-23 10:23 51°28.86 2°37.39 14.8 68 16.3 100490 91
2003-06-23 10:24 51°28.65 2°37.51 14.5 70 16.3 100510 91
2003-06-23 10:25 51°28.44 2°37.64 15 71 16.2 100510 91
2003-06-23 10:26 51°28.23 2°37.77 16.5 69 16.2 100520 91
2003-06-23 10:27 51°28.02 2°37.89 14.3 76 16.2 100500 91
2003-06-23 10:28 51°27.82 2°38.04 15.6 63 16.2 100510 91
2003-06-23 10:29 51°27.61 2°38.18 15.7 68 16.1 100520 91
2003-06-23 10:30 51°27.42 2°38.34 15.3 64 16.1 100510 92
2003-06-23 10:31 51°27.22 2°38.51 15.8 66 16.1 100510 92
2003-06-23 10:32 51°27.02 2°38.68 17.9 68 16.1 100510 92
2003-06-23 10:33 51°26.83 2°38.85 16 64 16 100520 92
2003-06-23 10:34 51°26.63 2°39.02 16.6 67 16 100520 92
2003-06-23 10:35 51°26.43 2°39.19 16.7 62 16.1 100530 92
2003-06-23 10:36 51°26.24 2°39.36 16.6 68 16.1 100520 92
2003-06-23 10:37 51°26.04 2°39.53 18.2 65 16.1 100520 92
2003-06-23 10:38 51°25.85 2°39.7 17.1 70 16.1 100520 92
2003-06-23 10:39 51°25.65 2°39.86 17.8 66 16.1 100520 92
2003-06-23 10:40 51°25.46 2°40.03 17.8 64 16.2 100520 92
2003-06-23 10:41 51°25.26 2°40.19 16.7 67 16.1 100510 92
2003-06-23 10:42 51°25.06 2°40.35 16.5 58 16.2 100520 92
2003-06-23 10:43 51°24.86 2°40.52 17.2 62 16.2 100530 92
2003-06-23 10:44 51°24.67 2°40.68 19.8 61 16.2 100540 92
2003-06-23 10:45 51°24.47 2°40.85 16.8 63 16.3 100520 92
2003-06-23 10:46 51°24.27 2°41.02 19.9 55 16.3 100530 92
2003-06-23 10:47 51°24.08 2°41.19 16.6 66 16.4 100540 92
2003-06-23 10:48 51°23.89 2°41.39 15.2 67 16.4 100560 92
2003-06-23 10:49 51°23.7 2°41.6 14.7 73 16.5 100560 92
2003-06-23 10:50 51°23.53 2°41.82 11.8 77 16.5 100560 92
2003-06-23 10:51 51°23.38 2°42.06 14.8 89 16.5 100560 91
2003-06-23 10:52 51°23.27 2°42.28 16.3 90 16.6 100600 91
2003-06-23 10:53 51°23.16 2°42.5 13.1 97 16.6 100590 91
2003-06-23 10:54 51°23.06 2°42.72 15.3 104 16.6 100590 91
2003-06-23 10:55 51°22.95 2°42.96 15.5 96 16.6 100600 91
2003-06-23 10:56 51°22.82 2°43.22 16.3 111 16.6 100590 91
2003-06-23 10:57 51°22.71 2°43.5 12.8 102 16.7 100590 90
2003-06-23 10:58 51°22.56 2°43.76 13.1 81 16.7 100590 90
2003-06-23 10:59 51°22.4 2°44.01 17.6 92 16.7 100580 90
2003-06-23 11:00 51°22.24 2°44.27 12 83 16.7 100590 90
2003-06-23 11:01 51°22.08 2°44.53 16 85 16.8 100590 90
2003-06-23 11:02 51°21.92 2°44.78 17.7 86 16.8 100590 90
2003-06-23 11:03 51°21.76 2°45.04 18.6 89 16.8 100580 89
2003-06-23 11:04 51°21.6 2°45.3 17.5 93 16.9 100590 89
2003-06-23 11:05 51°21.45 2°45.55 18.8 86 16.9 100590 89
2003-06-23 11:06 51°21.29 2°45.81 16.8 90 17 100600 89
2003-06-23 11:07 51°21.13 2°46.06 15.6 89 17 100600 89
2003-06-23 11:08 51°20.97 2°46.31 17.2 84 17.1 100610 89
2003-06-23 11:09 51°20.81 2°46.56 17.3 88 17.1 100620 88
2003-06-23 11:10 51°20.65 2°46.82 18.6 86 17.1 100610 88
2003-06-23 11:11 51°20.48 2°47.07 14.8 92 17.2 100600 88
2003-06-23 11:12 51°20.32 2°47.32 14 79 17.2 100610 88
2003-06-23 11:13 51°20.16 2°47.57 16.5 91 17.3 100620 88
2003-06-23 11:14 51°20 2°47.82 12.9 90 17.3 100620 88
2003-06-23 11:15 51°19.84 2°48.08 16.9 88 17.4 100640 88
2003-06-23 11:16 51°19.68 2°48.33 16.6 95 17.4 100630 87
2003-06-23 11:17 51°19.52 2°48.58 15.1 87 17.4 100640 87
2003-06-23 11:18 51°19.35 2°48.82 16.2 87 17.5 100640 88
2003-06-23 11:19 51°19.19 2°49.08 14.9 96 17.5 100640 87
2003-06-23 11:20 51°19.03 2°49.32 16 90 17.5 100650 87
2003-06-23 11:21 51°18.87 2°49.57 15 88 17.6 100640 87
2003-06-23 11:22 51°18.71 2°49.82 14.8 83 17.6 100640 87
2003-06-23 11:23 51°18.56 2°50.08 15.3 96 17.6 100640 87
2003-06-23 11:24 51°18.43 2°50.38 14.2 108 17.6 100650 86
2003-06-23 11:25 51°18.3 2°50.67 12.6 103 17.6 100660 86
2003-06-23 11:26 51°18.17 2°50.96 15.3 99 17.7 100670 86
2003-06-23 11:27 51°18.04 2°51.26 12.8 97 17.7 100670 86
2003-06-23 11:28 51°17.91 2°51.55 13.8 104 17.7 100670 86
2003-06-23 11:29 51°17.78 2°51.84 12.1 102 17.7 100670 86
2003-06-23 11:30 51°17.63 2°52.09 14.4 75 17.8 100680 85
2003-06-23 11:31 51°17.43 2°52.23 14 81 17.8 100650 85
2003-06-23 11:32 51°17.22 2°52.35 17.4 83 17.8 100650 85
2003-06-23 11:33 51°17.01 2°52.49 15.5 78 17.8 100650 85
2003-06-23 11:34 51°16.81 2°52.63 13.2 81 17.9 100670 85
2003-06-23 11:35 51°16.6 2°52.77 12.5 76 17.9 100650 84
2003-06-23 11:36 51°16.4 2°52.93 13.6 77 17.9 100660 84
2003-06-23 11:37 51°16.2 2°53.1 11.9 78 18 100680 84
2003-06-23 11:38 51°16 2°53.27 16.7 80 18 100680 84
2003-06-23 11:39 51°15.8 2°53.44 17.8 94 18.1 100700 84
2003-06-23 11:40 51°15.6 2°53.6 15.4 83 18.1 100700 84
2003-06-23 11:41 51°15.4 2°53.77 11.9 79 18.1 100690 83
2003-06-23 11:42 51°15.21 2°53.94 18.3 84 18.2 100710 83
2003-06-23 11:43 51°15.01 2°54.11 17 87 18.2 100730 83
2003-06-23 11:44 51°14.83 2°54.33 13.8 95 18.3 100730 83
2003-06-23 11:45 51°14.66 2°54.56 12.4 87 18.3 100750 83
2003-06-23 11:46 51°14.51 2°54.76 11.6 100 18.3 100740 83
2003-06-23 11:47 51°14.38 2°54.98 10.3 121 18.4 100760 83
2003-06-23 11:48 51°14.28 2°55.22 12 111 18.4 100780 83